sensor_id;sensor_type;location;lat;lon;timestamp;pressure;altitude;pressure_sealevel;temperature;humidity
7168;BME280;3625;51.762;14.320;2024-01-30T00:02:10;102185.91;;;3.84;100.00
7168;BME280;3625;51.762;14.320;2024-01-30T00:04:39;102189.34;;;3.83;100.00
7168;BME280;3625;51.762;14.320;2024-01-30T00:07:08;102182.56;;;3.90;100.00
7168;BME280;3625;51.762;14.320;2024-01-30T00:09:38;102144.19;;;3.63;100.00
7168;BME280;3625;51.762;14.320;2024-01-30T00:12:07;102166.50;;;3.77;100.00
7168;BME280;3625;51.762;14.320;2024-01-30T00:14:37;102185.13;;;3.87;100.00
7168;BME280;3625;51.762;14.320;2024-01-30T00:17:06;102185.13;;;3.87;100.00
7168;BME280;3625;51.762;14.320;2024-01-30T00:19:34;102134.41;;;3.58;100.00
7168;BME280;3625;51.762;14.320;2024-01-30T00:22:03;102158.38;;;3.70;100.00
7168;BME280;3625;51.762;14.320;2024-01-30T00:24:32;102120.78;;;3.41;100.00
7168;BME280;3625;51.762;14.320;2024-01-30T00:27:01;102101.13;;;3.27;100.00
7168;BME280;3625;51.762;14.320;2024-01-30T00:29:29;102184.06;;;3.82;100.00
7168;BME280;3625;51.762;14.320;2024-01-30T00:32:02;101934.06;;;2.32;100.00
7168;BME280;3625;51.762;14.320;2024-01-30T00:34:31;102187.25;;;3.73;100.00
7168;BME280;3625;51.762;14.320;2024-01-30T00:36:59;102185.59;;;3.75;100.00
7168;BME280;3625;51.762;14.320;2024-01-30T00:39:28;102177.28;;;3.61;100.00
7168;BME280;3625;51.762;14.320;2024-01-30T00:41:56;102181.69;;;3.62;100.00
7168;BME280;3625;51.762;14.320;2024-01-30T00:44:25;102183.31;;;3.59;100.00
7168;BME280;3625;51.762;14.320;2024-01-30T00:46:54;102150.69;;;3.49;100.00
7168;BME280;3625;51.762;14.320;2024-01-30T00:49:24;102177.44;;;3.66;100.00
7168;BME280;3625;51.762;14.320;2024-01-30T00:51:52;102171.41;;;3.68;100.00
7168;BME280;3625;51.762;14.320;2024-01-30T00:54:21;102169.84;;;3.73;100.00
7168;BME280;3625;51.762;14.320;2024-01-30T00:56:50;102178.56;;;3.74;100.00
7168;BME280;3625;51.762;14.320;2024-01-30T00:59:18;102175.91;;;3.72;100.00
7168;BME280;3625;51.762;14.320;2024-01-30T01:01:47;102176.66;;;3.68;100.00
7168;BME280;3625;51.762;14.320;2024-01-30T01:04:16;102183.63;;;3.68;100.00
7168;BME280;3625;51.762;14.320;2024-01-30T01:06:46;102180.00;;;3.64;100.00
7168;BME280;3625;51.762;14.320;2024-01-30T01:09:15;102158.56;;;3.49;100.00
7168;BME280;3625;51.762;14.320;2024-01-30T01:11:44;102171.09;;;3.59;100.00
7168;BME280;3625;51.762;14.320;2024-01-30T01:14:12;102180.63;;;3.57;100.00
7168;BME280;3625;51.762;14.320;2024-01-30T01:16:41;102171.94;;;3.58;100.00
7168;BME280;3625;51.762;14.320;2024-01-30T01:19:09;102174.56;;;3.58;100.00
7168;BME280;3625;51.762;14.320;2024-01-30T01:21:38;102162.94;;;3.50;100.00
7168;BME280;3625;51.762;14.320;2024-01-30T01:24:08;102150.38;;;3.40;100.00
7168;BME280;3625;51.762;14.320;2024-01-30T01:26:37;102170.09;;;3.54;100.00
7168;BME280;3625;51.762;14.320;2024-01-30T01:29:06;102172.59;;;3.51;100.00
7168;BME280;3625;51.762;14.320;2024-01-30T01:31:37;102171.63;;;3.49;100.00
7168;BME280;3625;51.762;14.320;2024-01-30T01:34:11;102161.16;;;3.49;100.00
7168;BME280;3625;51.762;14.320;2024-01-30T01:36:40;102114.22;;;3.27;100.00
7168;BME280;3625;51.762;14.320;2024-01-30T01:39:10;102156.72;;;3.47;100.00
7168;BME280;3625;51.762;14.320;2024-01-30T01:41:38;102155.94;;;3.49;100.00
7168;BME280;3625;51.762;14.320;2024-01-30T01:44:07;102134.38;;;3.31;100.00
7168;BME280;3625;51.762;14.320;2024-01-30T01:46:36;102152.16;;;3.41;100.00
7168;BME280;3625;51.762;14.320;2024-01-30T01:49:05;102154.72;;;3.39;100.00
7168;BME280;3625;51.762;14.320;2024-01-30T01:51:36;102149.56;;;3.41;100.00
7168;BME280;3625;51.762;14.320;2024-01-30T01:54:10;102148.72;;;3.42;100.00
7168;BME280;3625;51.762;14.320;2024-01-30T01:56:40;102151.34;;;3.42;100.00
7168;BME280;3625;51.762;14.320;2024-01-30T01:59:09;102149.50;;;3.39;100.00
7168;BME280;3625;51.762;14.320;2024-01-30T02:01:38;102151.34;;;3.42;100.00
7168;BME280;3625;51.762;14.320;2024-01-30T02:04:08;102149.63;;;3.42;100.00
7168;BME280;3625;51.762;14.320;2024-01-30T02:06:38;102153.19;;;3.45;100.00
7168;BME280;3625;51.762;14.320;2024-01-30T02:09:08;102144.44;;;3.44;100.00
7168;BME280;3625;51.762;14.320;2024-01-30T02:11:37;102145.53;;;3.51;100.00
7168;BME280;3625;51.762;14.320;2024-01-30T02:14:06;102146.53;;;3.54;100.00
7168;BME280;3625;51.762;14.320;2024-01-30T02:16:34;102148.16;;;3.51;100.00
7168;BME280;3625;51.762;14.320;2024-01-30T02:19:03;102150.81;;;3.52;100.00
7168;BME280;3625;51.762;14.320;2024-01-30T02:21:34;102146.41;;;3.51;100.00
7168;BME280;3625;51.762;14.320;2024-01-30T02:24:04;102147.25;;;3.50;100.00
7168;BME280;3625;51.762;14.320;2024-01-30T02:26:33;102148.84;;;3.45;100.00
7168;BME280;3625;51.762;14.320;2024-01-30T02:29:01;102145.34;;;3.46;100.00
7168;BME280;3625;51.762;14.320;2024-01-30T02:31:30;102145.34;;;3.46;100.00
7168;BME280;3625;51.762;14.320;2024-01-30T02:34:01;102141.91;;;3.47;100.00
7168;BME280;3625;51.762;14.320;2024-01-30T02:36:30;102108.91;;;3.25;100.00
7168;BME280;3625;51.762;14.320;2024-01-30T02:39:00;102145.41;;;3.48;100.00
7168;BME280;3625;51.762;14.320;2024-01-30T02:41:28;102058.97;;;2.92;100.00
7168;BME280;3625;51.762;14.320;2024-01-30T02:43:58;102152.28;;;3.44;100.00
7168;BME280;3625;51.762;14.320;2024-01-30T02:46:27;102140.94;;;3.44;100.00
7168;BME280;3625;51.762;14.320;2024-01-30T02:48:56;102143.53;;;3.44;100.00
7168;BME280;3625;51.762;14.320;2024-01-30T02:51:25;102141.72;;;3.41;100.00
7168;BME280;3625;51.762;14.320;2024-01-30T02:53:53;102147.72;;;3.38;100.00
7168;BME280;3625;51.762;14.320;2024-01-30T02:56:23;102139.84;;;3.37;100.00
7168;BME280;3625;51.762;14.320;2024-01-30T02:58:52;102141.50;;;3.35;100.00
7168;BME280;3625;51.762;14.320;2024-01-30T03:01:20;102148.25;;;3.28;100.00
7168;BME280;3625;51.762;14.320;2024-01-30T03:03:50;102116.28;;;3.12;100.00
7168;BME280;3625;51.762;14.320;2024-01-30T03:06:19;102037.16;;;2.67;100.00
7168;BME280;3625;51.762;14.320;2024-01-30T03:08:48;102145.69;;;3.30;100.00
7168;BME280;3625;51.762;14.320;2024-01-30T03:11:19;102141.28;;;3.29;100.00
7168;BME280;3625;51.762;14.320;2024-01-30T03:13:49;102114.53;;;3.12;100.00
7168;BME280;3625;51.762;14.320;2024-01-30T03:16:18;102139.41;;;3.25;100.00
7168;BME280;3625;51.762;14.320;2024-01-30T03:18:46;102141.06;;;3.23;100.00
7168;BME280;3625;51.762;14.320;2024-01-30T03:21:15;102138.53;;;3.24;100.00
7168;BME280;3625;51.762;14.320;2024-01-30T03:23:44;102100.59;;;3.12;100.00
7168;BME280;3625;51.762;14.320;2024-01-30T03:26:12;102134.28;;;3.28;100.00
7168;BME280;3625;51.762;14.320;2024-01-30T03:28:42;102039.16;;;2.74;100.00
7168;BME280;3625;51.762;14.320;2024-01-30T03:31:15;102071.16;;;2.92;100.00
7168;BME280;3625;51.762;14.320;2024-01-30T03:33:44;102137.50;;;3.21;100.00
7168;BME280;3625;51.762;14.320;2024-01-30T03:36:14;102130.53;;;3.20;100.00
7168;BME280;3625;51.762;14.320;2024-01-30T03:38:43;102046.81;;;2.69;100.00
7168;BME280;3625;51.762;14.320;2024-01-30T03:41:12;102101.97;;;3.00;100.00
7168;BME280;3625;51.762;14.320;2024-01-30T03:43:41;102124.97;;;3.11;100.00
7168;BME280;3625;51.762;14.320;2024-01-30T03:46:13;102115.44;;;3.13;100.00
7168;BME280;3625;51.762;14.320;2024-01-30T03:48:41;102118.28;;;3.19;100.00
7168;BME280;3625;51.762;14.320;2024-01-30T03:51:10;102092.41;;;3.01;100.00
7168;BME280;3625;51.762;14.320;2024-01-30T03:53:42;102125.19;;;3.17;100.00
7168;BME280;3625;51.762;14.320;2024-01-30T03:56:11;102119.00;;;3.15;100.00
7168;BME280;3625;51.762;14.320;2024-01-30T03:58:40;102122.38;;;3.12;100.00
7168;BME280;3625;51.762;14.320;2024-01-30T04:01:14;102128.44;;;3.10;100.00
7168;BME280;3625;51.762;14.320;2024-01-30T04:03:43;102001.41;;;2.40;100.00
7168;BME280;3625;51.762;14.320;2024-01-30T04:06:12;102121.50;;;3.12;100.00
7168;BME280;3625;51.762;14.320;2024-01-30T04:08:41;102127.69;;;3.14;100.00
7168;BME280;3625;51.762;14.320;2024-01-30T04:11:10;102124.97;;;3.11;100.00
7168;BME280;3625;51.762;14.320;2024-01-30T04:13:38;102119.78;;;3.12;100.00
7168;BME280;3625;51.762;14.320;2024-01-30T04:16:07;102112.81;;;3.13;100.00
7168;BME280;3625;51.762;14.320;2024-01-30T04:18:37;102120.59;;;3.10;100.00
7168;BME280;3625;51.762;14.320;2024-01-30T04:21:06;102115.22;;;3.07;100.00
7168;BME280;3625;51.762;14.320;2024-01-30T04:23:35;102109.28;;;3.11;100.00
7168;BME280;3625;51.762;14.320;2024-01-30T04:26:04;102062.03;;;2.81;100.00
7168;BME280;3625;51.762;14.320;2024-01-30T04:28:35;102120.66;;;3.13;100.00
7168;BME280;3625;51.762;14.320;2024-01-30T04:31:05;102118.09;;;3.14;100.00
7168;BME280;3625;51.762;14.320;2024-01-30T04:33:33;102123.25;;;3.11;100.00
7168;BME280;3625;51.762;14.320;2024-01-30T04:36:07;102100.88;;;2.94;100.00
7168;BME280;3625;51.762;14.320;2024-01-30T04:38:37;102119.50;;;3.04;100.00
7168;BME280;3625;51.762;14.320;2024-01-30T04:41:06;102117.06;;;3.09;100.00
7168;BME280;3625;51.762;14.320;2024-01-30T04:43:34;102086.59;;;2.86;100.00
7168;BME280;3625;51.762;14.320;2024-01-30T04:46:04;102118.81;;;3.09;100.00
7168;BME280;3625;51.762;14.320;2024-01-30T04:48:33;102112.63;;;3.07;100.00
7168;BME280;3625;51.762;14.320;2024-01-30T04:51:03;102120.53;;;3.08;100.00
7168;BME280;3625;51.762;14.320;2024-01-30T04:53:32;102116.91;;;3.04;100.00
7168;BME280;3625;51.762;14.320;2024-01-30T04:56:00;102113.31;;;3.01;100.00
7168;BME280;3625;51.762;14.320;2024-01-30T04:58:29;102115.28;;;3.08;100.00
7168;BME280;3625;51.762;14.320;2024-01-30T05:00:58;102115.22;;;3.07;100.00
7168;BME280;3625;51.762;14.320;2024-01-30T05:03:27;102108.22;;;3.06;100.00
7168;BME280;3625;51.762;14.320;2024-01-30T05:05:57;102077.16;;;2.89;100.00
7168;BME280;3625;51.762;14.320;2024-01-30T05:08:29;102116.84;;;3.03;100.00
7168;BME280;3625;51.762;14.320;2024-01-30T05:11:00;102103.75;;;3.03;100.00
7168;BME280;3625;51.762;14.320;2024-01-30T05:13:33;102100.19;;;2.99;100.00
7168;BME280;3625;51.762;14.320;2024-01-30T05:16:03;102106.63;;;3.09;100.00
7168;BME280;3625;51.762;14.320;2024-01-30T05:18:32;102059.50;;;2.82;100.00
7168;BME280;3625;51.762;14.320;2024-01-30T05:21:01;102107.38;;;3.07;100.00
7168;BME280;3625;51.762;14.320;2024-01-30T05:23:34;102107.44;;;3.08;100.00
7168;BME280;3625;51.762;14.320;2024-01-30T05:26:03;102106.69;;;3.11;100.00
7168;BME280;3625;51.762;14.320;2024-01-30T05:28:35;102104.84;;;3.08;100.00
7168;BME280;3625;51.762;14.320;2024-01-30T05:31:05;102107.44;;;3.08;100.00
7168;BME280;3625;51.762;14.320;2024-01-30T05:33:33;102129.19;;;3.07;100.00
7168;BME280;3625;51.762;14.320;2024-01-30T05:36:03;102052.22;;;2.74;100.00
7168;BME280;3625;51.762;14.320;2024-01-30T05:38:31;102107.28;;;3.03;100.00
7168;BME280;3625;51.762;14.320;2024-01-30T05:41:02;102075.25;;;2.84;100.00
7168;BME280;3625;51.762;14.320;2024-01-30T05:43:31;102106.44;;;3.04;100.00
7168;BME280;3625;51.762;14.320;2024-01-30T05:46:00;102013.97;;;2.52;100.00
7168;BME280;3625;51.762;14.320;2024-01-30T05:48:28;102093.78;;;2.91;100.00
7168;BME280;3625;51.762;14.320;2024-01-30T05:50:58;101836.19;;;1.47;100.00
7168;BME280;3625;51.762;14.320;2024-01-30T05:53:28;102111.47;;;2.98;100.00
7168;BME280;3625;51.762;14.320;2024-01-30T05:55:56;102104.41;;;2.96;100.00
7168;BME280;3625;51.762;14.320;2024-01-30T05:58:26;102110.50;;;2.96;100.00
7168;BME280;3625;51.762;14.320;2024-01-30T06:00:55;102104.34;;;2.94;100.00
7168;BME280;3625;51.762;14.320;2024-01-30T06:03:25;102109.56;;;2.94;100.00
7168;BME280;3625;51.762;14.320;2024-01-30T06:05:54;102105.41;;;2.99;100.00
7168;BME280;3625;51.762;14.320;2024-01-30T06:08:22;102103.63;;;2.98;100.00
7168;BME280;3625;51.762;14.320;2024-01-30T06:10:51;102103.63;;;2.98;100.00
7168;BME280;3625;51.762;14.320;2024-01-30T06:13:20;102101.91;;;2.99;100.00
7168;BME280;3625;51.762;14.320;2024-01-30T06:15:50;102099.16;;;2.96;100.00
7168;BME280;3625;51.762;14.320;2024-01-30T06:18:19;102095.78;;;2.98;100.00
7168;BME280;3625;51.762;14.320;2024-01-30T06:20:47;102093.09;;;2.97;100.00
7168;BME280;3625;51.762;14.320;2024-01-30T06:23:16;102094.81;;;2.96;100.00
7168;BME280;3625;51.762;14.320;2024-01-30T06:25:45;102101.06;;;3.00;100.00
7168;BME280;3625;51.762;14.320;2024-01-30T06:28:14;102101.84;;;2.97;100.00
7168;BME280;3625;51.762;14.320;2024-01-30T06:30:43;102101.13;;;3.01;100.00
7168;BME280;3625;51.762;14.320;2024-01-30T06:33:13;102050.56;;;2.76;100.00
7168;BME280;3625;51.762;14.320;2024-01-30T06:35:42;102100.38;;;3.06;100.00
7168;BME280;3625;51.762;14.320;2024-01-30T06:38:13;102103.00;;;3.06;100.00
7168;BME280;3625;51.762;14.320;2024-01-30T06:40:42;102103.94;;;3.08;100.00
7168;BME280;3625;51.762;14.320;2024-01-30T06:43:11;102070.16;;;2.88;100.00
7168;BME280;3625;51.762;14.320;2024-01-30T06:45:40;102104.16;;;3.14;100.00
7168;BME280;3625;51.762;14.320;2024-01-30T06:48:10;102103.16;;;3.10;100.00
7168;BME280;3625;51.762;14.320;2024-01-30T06:50:40;102070.91;;;2.84;100.00
7168;BME280;3625;51.762;14.320;2024-01-30T06:53:09;102022.13;;;2.59;100.00
7168;BME280;3625;51.762;14.320;2024-01-30T06:55:37;102084.31;;;2.95;100.00
7168;BME280;3625;51.762;14.320;2024-01-30T06:58:08;102110.19;;;3.11;100.00
7168;BME280;3625;51.762;14.320;2024-01-30T07:00:37;102113.06;;;3.19;100.00
7168;BME280;3625;51.762;14.320;2024-01-30T07:03:06;102109.69;;;3.23;100.00
7168;BME280;3625;51.762;14.320;2024-01-30T07:05:35;102064.34;;;2.97;100.00
7168;BME280;3625;51.762;14.320;2024-01-30T07:08:05;102107.28;;;3.29;100.00
7168;BME280;3625;51.762;14.320;2024-01-30T07:10:34;102086.94;;;3.20;100.00
7168;BME280;3625;51.762;14.320;2024-01-30T07:13:03;102118.09;;;3.39;100.00
7168;BME280;3625;51.762;14.320;2024-01-30T07:15:33;102115.75;;;3.47;100.00
7168;BME280;3625;51.762;14.320;2024-01-30T07:18:01;102111.56;;;3.52;100.00
7168;BME280;3625;51.762;14.320;2024-01-30T07:20:30;102106.41;;;3.55;100.00
7168;BME280;3625;51.762;14.320;2024-01-30T07:23:00;102102.19;;;3.59;100.00
7168;BME280;3625;51.762;14.320;2024-01-30T07:25:31;101919.06;;;2.51;100.00
7168;BME280;3625;51.762;14.320;2024-01-30T07:28:00;102106.81;;;3.67;100.00
7168;BME280;3625;51.762;14.320;2024-01-30T07:30:29;102100.00;;;3.72;100.00
7168;BME280;3625;51.762;14.320;2024-01-30T07:32:58;102108.97;;;3.79;100.00
7168;BME280;3625;51.762;14.320;2024-01-30T07:35:27;102060.44;;;3.63;100.00
7168;BME280;3625;51.762;14.320;2024-01-30T07:37:56;102109.44;;;3.94;100.00
7168;BME280;3625;51.762;14.320;2024-01-30T07:40:25;102112.22;;;4.00;100.00
7168;BME280;3625;51.762;14.320;2024-01-30T07:42:55;102109.00;;;4.09;100.00
7168;BME280;3625;51.762;14.320;2024-01-30T07:45:24;102117.91;;;4.14;100.00
7168;BME280;3625;51.762;14.320;2024-01-30T07:47:54;102107.44;;;4.14;100.00
7168;BME280;3625;51.762;14.320;2024-01-30T07:50:23;102110.34;;;4.25;100.00
7168;BME280;3625;51.762;14.320;2024-01-30T07:52:52;102108.00;;;4.32;100.00
7168;BME280;3625;51.762;14.320;2024-01-30T07:55:22;102110.00;;;4.41;100.00
7168;BME280;3625;51.762;14.320;2024-01-30T07:57:54;102064.81;;;4.20;100.00
7168;BME280;3625;51.762;14.320;2024-01-30T08:00:32;102104.28;;;4.55;100.00
7168;BME280;3625;51.762;14.320;2024-01-30T08:03:00;102110.66;;;4.64;100.00
7168;BME280;3625;51.762;14.320;2024-01-30T08:05:29;102103.88;;;4.72;100.00
7168;BME280;3625;51.762;14.320;2024-01-30T08:07:58;102053.44;;;4.49;100.00
7168;BME280;3625;51.762;14.320;2024-01-30T08:10:27;102100.72;;;4.85;100.00
7168;BME280;3625;51.762;14.320;2024-01-30T08:12:59;102093.06;;;4.91;100.00
7168;BME280;3625;51.762;14.320;2024-01-30T08:15:28;102014.19;;;4.52;100.00
7168;BME280;3625;51.762;14.320;2024-01-30T08:17:56;102098.66;;;5.05;100.00
7168;BME280;3625;51.762;14.320;2024-01-30T08:20:26;102103.16;;;5.10;100.00
7168;BME280;3625;51.762;14.320;2024-01-30T08:22:55;102104.25;;;5.17;100.00
7168;BME280;3625;51.762;14.320;2024-01-30T08:25:23;102056.34;;;4.91;100.00
7168;BME280;3625;51.762;14.320;2024-01-30T08:27:56;102100.97;;;5.25;100.00
7168;BME280;3625;51.762;14.320;2024-01-30T08:30:27;102097.59;;;5.31;100.00
7168;BME280;3625;51.762;14.320;2024-01-30T08:32:55;102097.75;;;5.36;100.00
7168;BME280;3625;51.762;14.320;2024-01-30T08:35:25;102106.66;;;5.42;100.00
7168;BME280;3625;51.762;14.320;2024-01-30T08:37:55;102115.50;;;5.47;100.00
7168;BME280;3625;51.762;14.320;2024-01-30T08:40:23;102106.88;;;5.51;100.00
7168;BME280;3625;51.762;14.320;2024-01-30T08:42:52;102108.75;;;5.57;100.00
7168;BME280;3625;51.762;14.320;2024-01-30T08:45:22;101935.78;;;4.60;100.00
7168;BME280;3625;51.762;14.320;2024-01-30T08:47:51;102098.59;;;5.71;100.00
7168;BME280;3625;51.762;14.320;2024-01-30T08:50:19;102105.66;;;5.73;100.00
7168;BME280;3625;51.762;14.320;2024-01-30T08:52:48;102095.19;;;5.75;100.00
7168;BME280;3625;51.762;14.320;2024-01-30T08:55:16;102097.94;;;5.79;100.00
7168;BME280;3625;51.762;14.320;2024-01-30T08:57:45;102070.63;;;5.73;100.00
7168;BME280;3625;51.762;14.320;2024-01-30T09:00:15;102094.69;;;5.89;100.00
7168;BME280;3625;51.762;14.320;2024-01-30T09:02:45;102089.53;;;5.94;100.00
7168;BME280;3625;51.762;14.320;2024-01-30T09:05:14;102095.72;;;5.96;100.00
7168;BME280;3625;51.762;14.320;2024-01-30T09:07:43;102097.47;;;5.97;100.00
7168;BME280;3625;51.762;14.320;2024-01-30T09:10:12;102098.41;;;5.99;100.00
7168;BME280;3625;51.762;14.320;2024-01-30T09:12:43;102098.50;;;6.02;100.00
7168;BME280;3625;51.762;14.320;2024-01-30T09:15:12;102101.19;;;6.05;100.00
7168;BME280;3625;51.762;14.320;2024-01-30T09:17:40;102101.19;;;6.06;100.00
7168;BME280;3625;51.762;14.320;2024-01-30T09:20:11;102101.25;;;6.08;100.00
7168;BME280;3625;51.762;14.320;2024-01-30T09:22:40;102096.78;;;6.05;100.00
7168;BME280;3625;51.762;14.320;2024-01-30T09:25:09;102104.72;;;6.07;100.00
7168;BME280;3625;51.762;14.320;2024-01-30T09:27:37;102104.81;;;6.10;100.00
7168;BME280;3625;51.762;14.320;2024-01-30T09:30:08;102104.00;;;6.13;100.00
7168;BME280;3625;51.762;14.320;2024-01-30T09:32:39;102104.94;;;6.16;100.00
7168;BME280;3625;51.762;14.320;2024-01-30T09:35:09;102094.50;;;6.19;100.00
7168;BME280;3625;51.762;14.320;2024-01-30T09:37:38;102100.69;;;6.23;100.00
7168;BME280;3625;51.762;14.320;2024-01-30T09:40:08;102104.41;;;6.31;100.00
7168;BME280;3625;51.762;14.320;2024-01-30T09:42:37;102108.03;;;6.37;100.00
7168;BME280;3625;51.762;14.320;2024-01-30T09:45:06;102051.41;;;6.11;100.00
7168;BME280;3625;51.762;14.320;2024-01-30T09:47:41;102092.31;;;6.39;100.00
7168;BME280;3625;51.762;14.320;2024-01-30T09:50:14;102109.34;;;6.59;100.00
7168;BME280;3625;51.762;14.320;2024-01-30T09:52:44;102112.97;;;6.64;100.00
7168;BME280;3625;51.762;14.320;2024-01-30T09:55:14;102109.50;;;6.67;100.00
7168;BME280;3625;51.762;14.320;2024-01-30T09:57:43;102114.06;;;6.75;98.96
7168;BME280;3625;51.762;14.320;2024-01-30T10:00:13;102110.69;;;6.81;98.73
7168;BME280;3625;51.762;14.320;2024-01-30T10:02:42;102111.63;;;6.83;99.83
7168;BME280;3625;51.762;14.320;2024-01-30T10:05:18;102098.59;;;6.91;100.00
7168;BME280;3625;51.762;14.320;2024-01-30T10:07:53;102086.50;;;7.02;97.93
7168;BME280;3625;51.762;14.320;2024-01-30T10:10:23;102084.97;;;7.13;98.00
7168;BME280;3625;51.762;14.320;2024-01-30T10:12:52;102072.84;;;7.21;96.82
7168;BME280;3625;51.762;14.320;2024-01-30T10:15:20;102078.25;;;7.30;95.47
7168;BME280;3625;51.762;14.320;2024-01-30T10:17:49;102080.03;;;7.31;92.49
7168;BME280;3625;51.762;14.320;2024-01-30T10:20:19;102070.38;;;7.32;88.89
7168;BME280;3625;51.762;14.320;2024-01-30T10:22:50;102081.25;;;7.51;87.66
7168;BME280;3625;51.762;14.320;2024-01-30T10:25:18;102075.19;;;7.57;90.17
7168;BME280;3625;51.762;14.320;2024-01-30T10:27:52;102073.50;;;7.62;89.29
7168;BME280;3625;51.762;14.320;2024-01-30T10:30:21;102068.38;;;7.71;88.75
7168;BME280;3625;51.762;14.320;2024-01-30T10:32:50;102067.63;;;7.77;88.06
7168;BME280;3625;51.762;14.320;2024-01-30T10:35:21;102036.66;;;7.64;87.42
7168;BME280;3625;51.762;14.320;2024-01-30T10:37:50;102061.63;;;7.88;86.61
7168;BME280;3625;51.762;14.320;2024-01-30T10:40:27;102062.59;;;7.93;84.90
7168;BME280;3625;51.762;14.320;2024-01-30T10:42:59;102061.78;;;7.99;84.93
7168;BME280;3625;51.762;14.320;2024-01-30T10:45:31;102059.22;;;8.05;84.57
7168;BME280;3625;51.762;14.320;2024-01-30T10:48:01;102060.13;;;8.07;81.43
7168;BME280;3625;51.762;14.320;2024-01-30T10:50:34;102058.41;;;8.09;82.17
7168;BME280;3625;51.762;14.320;2024-01-30T10:53:19;102061.91;;;8.08;81.95
7168;BME280;3625;51.762;14.320;2024-01-30T10:55:48;102061.94;;;8.10;81.32
7168;BME280;3625;51.762;14.320;2024-01-30T10:58:19;102055.81;;;8.12;79.83
7168;BME280;3625;51.762;14.320;2024-01-30T11:00:50;102061.19;;;8.20;78.01
7168;BME280;3625;51.762;14.320;2024-01-30T11:03:19;102039.16;;;8.16;79.42
7168;BME280;3625;51.762;14.320;2024-01-30T11:05:52;102058.81;;;8.37;79.62
7168;BME280;3625;51.762;14.320;2024-01-30T11:08:25;102057.16;;;8.46;77.38
7168;BME280;3625;51.762;14.320;2024-01-30T11:10:57;102047.66;;;8.60;76.65
7168;BME280;3625;51.762;14.320;2024-01-30T11:13:27;102052.19;;;8.72;77.45
7168;BME280;3625;51.762;14.320;2024-01-30T11:16:00;102047.06;;;8.87;73.85
7168;BME280;3625;51.762;14.320;2024-01-30T11:18:32;102044.56;;;9.02;73.38
7168;BME280;3625;51.762;14.320;2024-01-30T11:21:05;102042.06;;;9.15;71.30
7168;BME280;3625;51.762;14.320;2024-01-30T11:23:34;102038.63;;;9.26;70.73
7168;BME280;3625;51.762;14.320;2024-01-30T11:26:04;102036.13;;;9.41;69.13
7168;BME280;3625;51.762;14.320;2024-01-30T11:28:33;102037.97;;;9.53;67.37
7168;BME280;3625;51.762;14.320;2024-01-30T11:31:07;102042.44;;;9.63;66.07
7168;BME280;3625;51.762;14.320;2024-01-30T11:33:36;102034.56;;;9.72;62.35
7168;BME280;3625;51.762;14.320;2024-01-30T11:36:08;102038.13;;;9.79;61.42
7168;BME280;3625;51.762;14.320;2024-01-30T11:38:37;102032.00;;;9.83;63.18
7168;BME280;3625;51.762;14.320;2024-01-30T11:41:09;102019.69;;;9.85;60.92
7168;BME280;3625;51.762;14.320;2024-01-30T11:43:37;102036.53;;;10.07;61.15
7168;BME280;3625;51.762;14.320;2024-01-30T11:46:07;101986.28;;;10.04;60.05
7168;BME280;3625;51.762;14.320;2024-01-30T11:48:37;102038.53;;;10.56;59.20
7168;BME280;3625;51.762;14.320;2024-01-30T11:51:07;102035.94;;;10.63;58.89
7168;BME280;3625;51.762;14.320;2024-01-30T11:53:36;101999.66;;;10.31;56.74
7168;BME280;3625;51.762;14.320;2024-01-30T11:56:06;102034.94;;;10.33;56.48
7168;BME280;3625;51.762;14.320;2024-01-30T11:58:35;102030.53;;;10.35;57.72
7168;BME280;3625;51.762;14.320;2024-01-30T12:01:04;102031.41;;;10.33;58.11
7168;BME280;3625;51.762;14.320;2024-01-30T12:03:33;102026.06;;;10.24;56.87
7168;BME280;3625;51.762;14.320;2024-01-30T12:06:03;102030.47;;;10.18;58.46
7168;BME280;3625;51.762;14.320;2024-01-30T12:08:34;102028.72;;;10.25;58.47
7168;BME280;3625;51.762;14.320;2024-01-30T12:11:03;102021.66;;;10.24;58.21
7168;BME280;3625;51.762;14.320;2024-01-30T12:13:35;102012.00;;;10.28;57.71
7168;BME280;3625;51.762;14.320;2024-01-30T12:16:05;102016.44;;;10.35;57.33
7168;BME280;3625;51.762;14.320;2024-01-30T12:18:33;101987.28;;;10.19;57.42
7168;BME280;3625;51.762;14.320;2024-01-30T12:21:02;102016.44;;;10.42;57.80
7168;BME280;3625;51.762;14.320;2024-01-30T12:23:33;102008.50;;;10.47;57.29
7168;BME280;3625;51.762;14.320;2024-01-30T12:26:04;102012.09;;;10.61;56.23
7168;BME280;3625;51.762;14.320;2024-01-30T12:28:34;102012.97;;;10.65;56.79
7168;BME280;3625;51.762;14.320;2024-01-30T12:31:03;102012.09;;;10.59;56.81
7168;BME280;3625;51.762;14.320;2024-01-30T12:33:33;102011.22;;;10.53;55.73
7168;BME280;3625;51.762;14.320;2024-01-30T12:36:02;101990.91;;;10.46;56.00
7168;BME280;3625;51.762;14.320;2024-01-30T12:38:33;102006.78;;;10.46;55.79
7168;BME280;3625;51.762;14.320;2024-01-30T12:41:01;101987.31;;;10.29;56.67
7168;BME280;3625;51.762;14.320;2024-01-30T12:43:30;102000.56;;;10.42;56.93
7168;BME280;3625;51.762;14.320;2024-01-30T12:46:06;101999.66;;;10.33;57.54
7168;BME280;3625;51.762;14.320;2024-01-30T12:48:35;101975.72;;;10.05;57.81
7168;BME280;3625;51.762;14.320;2024-01-30T12:51:04;101996.00;;;10.06;58.10
7168;BME280;3625;51.762;14.320;2024-01-30T12:53:34;101988.88;;;9.96;58.86
7168;BME280;3625;51.762;14.320;2024-01-30T12:56:03;101989.75;;;9.91;58.62
7168;BME280;3625;51.762;14.320;2024-01-30T12:58:32;101987.94;;;9.80;58.79
7168;BME280;3625;51.762;14.320;2024-01-30T13:01:01;101987.88;;;9.68;59.12
7168;BME280;3625;51.762;14.320;2024-01-30T13:03:30;101988.69;;;9.57;60.00
7168;BME280;3625;51.762;14.320;2024-01-30T13:06:00;101993.00;;;9.47;60.00
7168;BME280;3625;51.762;14.320;2024-01-30T13:08:29;101958.47;;;9.17;60.94
7168;BME280;3625;51.762;14.320;2024-01-30T13:10:59;101999.03;;;9.28;61.37
7168;BME280;3625;51.762;14.320;2024-01-30T13:13:27;101986.66;;;9.22;61.86
7168;BME280;3625;51.762;14.320;2024-01-30T13:15:57;101983.16;;;9.22;62.28